createdAt,value
2023-04-15T00:02:22.996Z,100824.03
2023-04-15T00:04:51.076Z,100821.38
2023-04-15T00:07:19.119Z,100827.56
2023-04-15T00:09:48.384Z,100818.78
2023-04-15T00:12:16.285Z,100819.66
2023-04-15T00:14:45.063Z,100818.78
2023-04-15T00:17:15.522Z,100817.06
2023-04-15T00:19:44.825Z,100817.94
2023-04-15T00:22:12.846Z,100816.13
2023-04-15T00:24:40.958Z,100816.19
2023-04-15T00:27:10.337Z,100820.63
2023-04-15T00:29:38.307Z,100828.66
2023-04-15T00:32:09.215Z,100829.69
2023-04-15T00:34:37.283Z,100825.31
2023-04-15T00:37:05.340Z,100824.44
2023-04-15T00:39:33.229Z,100827.13
2023-04-15T00:42:01.422Z,100821.97
2023-04-15T00:44:30.860Z,100825.38
2023-04-15T00:46:59.470Z,100827.31
2023-04-15T00:49:28.945Z,100821.97
2023-04-15T00:51:57.124Z,100823.88
2023-04-15T00:54:27.935Z,100820.22
2023-04-15T00:56:56.584Z,100821.09
2023-04-15T00:59:27.161Z,100831.91
2023-04-15T01:01:57.398Z,100823.88
2023-04-15T01:04:26.301Z,100829.34
2023-04-15T01:06:54.352Z,100825.81
2023-04-15T01:09:22.277Z,100821.31
2023-04-15T01:11:50.301Z,100826.66
2023-04-15T01:14:18.227Z,100822.25
2023-04-15T01:16:46.194Z,100826.72
2023-04-15T01:19:17.705Z,100829.41
2023-04-15T01:21:48.308Z,100833.06
2023-04-15T01:24:19.628Z,100837.56
2023-04-15T01:26:50.385Z,100836.69
2023-04-15T01:29:19.365Z,100835.72
2023-04-15T01:31:52.430Z,100834.03
2023-04-15T01:34:20.939Z,100828.66
2023-04-15T01:36:49.322Z,100837.56
2023-04-15T01:39:17.282Z,100831.34
2023-04-15T01:41:46.672Z,100821.47
2023-04-15T01:44:16.480Z,100834.88
2023-04-15T01:46:48.372Z,100838.41
2023-04-15T01:49:17.072Z,100833.16
2023-04-15T01:51:44.988Z,100830.50
2023-04-15T01:54:13.099Z,100833.25
2023-04-15T01:56:41.050Z,100831.53
2023-04-15T01:59:09.798Z,100831.53
2023-04-15T02:01:39.748Z,100840.53
2023-04-15T02:04:08.384Z,100835.16
2023-04-15T02:06:39.392Z,100829.81
2023-04-15T02:09:08.620Z,100833.47
2023-04-15T02:11:37.270Z,100830.84
2023-04-15T02:14:05.762Z,100844.16
2023-04-15T02:16:34.564Z,100839.84
2023-04-15T02:19:04.337Z,100842.53
2023-04-15T02:21:32.266Z,100844.34
2023-04-15T02:24:00.671Z,100844.34
2023-04-15T02:26:32.101Z,100848.84
2023-04-15T02:29:00.639Z,100848.00
2023-04-15T02:31:34.096Z,100845.31
2023-04-15T02:34:04.363Z,100850.75
2023-04-15T02:36:32.570Z,100856.09
2023-04-15T02:39:00.821Z,100856.09
2023-04-15T02:41:28.929Z,100861.47
2023-04-15T02:43:57.243Z,100868.63
2023-04-15T02:46:25.301Z,100865.00
2023-04-15T02:48:53.886Z,100862.31
2023-04-15T02:51:23.605Z,100871.31
2023-04-15T02:53:51.734Z,100861.47
2023-04-15T02:56:23.315Z,100879.25
2023-04-15T02:58:51.569Z,100871.31
2023-04-15T03:01:20.637Z,100867.69
2023-04-15T03:03:48.825Z,100864.25
2023-04-15T03:06:16.839Z,100876.66
2023-04-15T03:08:46.762Z,100868.63
2023-04-15T03:11:17.017Z,100869.50
2023-04-15T03:13:44.994Z,100872.28
2023-04-15T03:16:13.040Z,100876.66
2023-04-15T03:18:40.972Z,100877.63
2023-04-15T03:21:08.985Z,100883.00
2023-04-15T03:23:36.890Z,100874.09
2023-04-15T03:26:06.564Z,100877.72
2023-04-15T03:28:34.598Z,100874.28
2023-04-15T03:31:02.511Z,100884.03
2023-04-15T03:33:30.485Z,100887.66
2023-04-15T03:35:58.433Z,100888.53
2023-04-15T03:38:28.842Z,100888.53
2023-04-15T03:40:56.877Z,100888.53
2023-04-15T03:43:26.505Z,100897.41
2023-04-15T03:45:54.540Z,100897.41
2023-04-15T03:48:22.439Z,100898.38
2023-04-15T03:50:50.448Z,100898.47
2023-04-15T03:53:22.462Z,100900.19
2023-04-15T03:55:50.493Z,100894.84
2023-04-15T03:58:18.861Z,100902.09
2023-04-15T04:00:48.154Z,100907.44
2023-04-15T04:03:16.663Z,100909.16
2023-04-15T04:05:44.874Z,100907.44
2023-04-15T04:08:13.943Z,100904.78
2023-04-15T04:10:41.982Z,100910.06
2023-04-15T04:13:10.169Z,100919.97
2023-04-15T04:15:38.115Z,100922.53
2023-04-15T04:18:07.583Z,100925.22
2023-04-15T04:20:35.673Z,100919.00
2023-04-15T04:23:03.564Z,100933.38
2023-04-15T04:25:31.515Z,100928.13
2023-04-15T04:27:59.462Z,100938.72
2023-04-15T04:30:27.387Z,100938.72
2023-04-15T04:32:55.461Z,100941.41
2023-04-15T04:35:24.818Z,100943.50
2023-04-15T04:37:53.805Z,100946.06
2023-04-15T04:40:21.820Z,100949.53
2023-04-15T04:42:49.851Z,100950.38
2023-04-15T04:45:18.160Z,100952.22
2023-04-15T04:47:46.809Z,100962.13
2023-04-15T04:50:14.977Z,100963.94
2023-04-15T04:52:44.301Z,100969.31
2023-04-15T04:55:14.745Z,100977.44
2023-04-15T04:57:42.674Z,100975.53
2023-04-15T05:00:12.618Z,100977.22
2023-04-15T05:02:41.845Z,100987.09
2023-04-15T05:05:10.986Z,100989.88
2023-04-15T05:07:39.494Z,100993.41
2023-04-15T05:10:10.361Z,100993.50
2023-04-15T05:12:38.590Z,100997.03
2023-04-15T05:15:08.421Z,101001.53
2023-04-15T05:17:36.483Z,101003.34
2023-04-15T05:20:04.937Z,101011.38
2023-04-15T05:22:32.899Z,101014.13
2023-04-15T05:25:00.972Z,101015.66
2023-04-15T05:27:30.860Z,101021.03
2023-04-15T05:29:58.801Z,101024.56
2023-04-15T05:32:26.746Z,101020.06
2023-04-15T05:34:54.772Z,101021.88
2023-04-15T05:37:22.675Z,101035.28
2023-04-15T05:39:50.611Z,101035.28
2023-04-15T05:42:18.706Z,101029.91
2023-04-15T05:44:50.509Z,101034.41
2023-04-15T05:47:18.451Z,101044.25
2023-04-15T05:49:46.487Z,101037.09
2023-04-15T05:52:14.426Z,101047.78
2023-04-15T05:54:42.381Z,101041.69
2023-04-15T05:57:10.319Z,101050.56
2023-04-15T05:59:42.181Z,101058.50
2023-04-15T06:02:12.111Z,101054.97
2023-04-15T06:04:40.610Z,101069.22
2023-04-15T06:07:08.785Z,101054.88
2023-04-15T06:09:36.778Z,101062.91
2023-04-15T06:12:04.947Z,101074.50
2023-04-15T06:14:32.908Z,101072.69
2023-04-15T06:17:00.833Z,101082.44
2023-04-15T06:19:30.418Z,101091.31
2023-04-15T06:21:59.163Z,101086.81
2023-04-15T06:24:27.243Z,101088.63
2023-04-15T06:26:55.186Z,101094.84
2023-04-15T06:29:23.089Z,101099.25
2023-04-15T06:31:51.208Z,101106.34
2023-04-15T06:34:21.897Z,101106.34
2023-04-15T06:36:51.224Z,101099.16
2023-04-15T06:39:19.197Z,101110.75
2023-04-15T06:41:47.398Z,101116.94
2023-04-15T06:44:15.883Z,101121.44
2023-04-15T06:46:43.816Z,101124.13
2023-04-15T06:49:12.364Z,101133.03
2023-04-15T06:51:40.357Z,101136.56
2023-04-15T06:54:09.740Z,101140.09
2023-04-15T06:56:37.705Z,101136.56
2023-04-15T06:59:05.626Z,101141.91
2023-04-15T07:01:33.573Z,101141.91
2023-04-15T07:04:07.131Z,101149.09
2023-04-15T07:06:35.562Z,101150.03
2023-04-15T07:09:05.507Z,101158.06
2023-04-15T07:11:35.095Z,101160.66
2023-04-15T07:14:03.058Z,101165.34
2023-04-15T07:16:31.248Z,101172.25
2023-04-15T07:18:59.499Z,101177.94
2023-04-15T07:21:28.082Z,101181.22
2023-04-15T07:23:56.051Z,101182.69
2023-04-15T07:26:24.695Z,101185.03
2023-04-15T07:28:53.955Z,101192.78
2023-04-15T07:31:22.144Z,101197.97
2023-04-15T07:33:50.115Z,101193.41
2023-04-15T07:36:18.158Z,101190.53
2023-04-15T07:38:46.101Z,101199.34
2023-04-15T07:41:14.290Z,101201.09
2023-04-15T07:43:45.340Z,101201.94
2023-04-15T07:46:14.666Z,101207.22
2023-04-15T07:48:42.755Z,101207.13
2023-04-15T07:51:10.895Z,101203.00
2023-04-15T07:53:38.919Z,101210.25
2023-04-15T07:56:07.398Z,101214.47
2023-04-15T07:58:35.560Z,101215.25
2023-04-15T08:01:03.426Z,101209.66
2023-04-15T08:03:41.315Z,101217.56
2023-04-15T08:06:12.345Z,101219.13
2023-04-15T08:08:40.291Z,101223.47
2023-04-15T08:11:08.230Z,101226.03
2023-04-15T08:13:36.232Z,101225.06
2023-04-15T08:16:19.996Z,101221.47
2023-04-15T08:18:54.214Z,101242.72
2023-04-15T08:21:23.009Z,101229.34
2023-04-15T08:23:52.478Z,101239.09
2023-04-15T08:26:21.651Z,101232.78
2023-04-15T08:28:50.468Z,101241.66
2023-04-15T08:31:19.544Z,101234.50
2023-04-15T08:33:47.646Z,101238.91
2023-04-15T08:36:17.638Z,101253.16
2023-04-15T08:38:46.004Z,101251.34
2023-04-15T08:41:22.510Z,101263.88
2023-04-15T08:43:54.956Z,101257.47
2023-04-15T08:46:23.764Z,101258.31
2023-04-15T08:48:58.533Z,101266.34
2023-04-15T08:51:28.230Z,101270.78
2023-04-15T08:53:56.271Z,101255.66
2023-04-15T08:56:26.820Z,101258.25
2023-04-15T08:58:55.288Z,101268.00
2023-04-15T09:01:23.957Z,101270.69
2023-04-15T09:03:52.804Z,101280.44
2023-04-15T09:06:21.784Z,101285.81
2023-04-15T09:08:51.856Z,101279.53
2023-04-15T09:11:20.518Z,101279.84
2023-04-15T09:13:48.939Z,101290.81
2023-04-15T09:16:16.925Z,101292.41
2023-04-15T09:18:47.898Z,101294.66
2023-04-15T09:21:18.147Z,101290.97
2023-04-15T09:23:58.386Z,101296.06
2023-04-15T09:26:36.521Z,101299.44
2023-04-15T09:29:09.258Z,101306.34
2023-04-15T09:31:37.658Z,101309.81
2023-04-15T09:34:05.804Z,101306.19
2023-04-15T09:36:52.678Z,101310.53
2023-04-15T09:39:22.489Z,101309.47
2023-04-15T09:42:06.783Z,101314.75
2023-04-15T09:44:35.229Z,101318.19
2023-04-15T09:47:05.808Z,101324.41
2023-04-15T09:49:34.234Z,101313.63
2023-04-15T09:52:06.544Z,101324.25
2023-04-15T09:54:38.683Z,101325.97
2023-04-15T09:57:08.222Z,101333.06
2023-04-15T09:59:36.163Z,101338.44
2023-04-15T10:02:06.486Z,101341.00
2023-04-15T10:04:37.578Z,101332.97
2023-04-15T10:07:07.085Z,101342.75
2023-04-15T10:09:37.464Z,101342.75
2023-04-15T10:12:06.446Z,101346.22
2023-04-15T10:14:38.547Z,101337.31
2023-04-15T10:17:06.749Z,101350.72
2023-04-15T10:19:37.646Z,101347.06
2023-04-15T10:22:07.960Z,101343.59
2023-04-15T10:24:37.937Z,101363.25
2023-04-15T10:27:08.566Z,101361.41
2023-04-15T10:29:36.819Z,101362.28
2023-04-15T10:32:05.581Z,101356.91
2023-04-15T10:34:33.919Z,101364.09
2023-04-15T10:37:04.031Z,101366.78
2023-04-15T10:39:44.704Z,101368.50
2023-04-15T10:42:15.246Z,101360.38
2023-04-15T10:44:45.039Z,101363.13
2023-04-15T10:47:14.708Z,101374.63
2023-04-15T10:49:51.062Z,101387.16
2023-04-15T10:52:23.430Z,101379.03
2023-04-15T10:55:04.732Z,101380.88
2023-04-15T10:57:36.945Z,101367.47
2023-04-15T11:00:12.358Z,101381.56
2023-04-15T11:02:45.958Z,101372.56
2023-04-15T11:05:14.664Z,101375.16
2023-04-15T11:07:49.929Z,101388.47
2023-04-15T11:10:58.911Z,101373.00
2023-04-15T11:13:29.385Z,101371.28
2023-04-15T11:16:00.328Z,101378.25
2023-04-15T11:18:31.262Z,101380.88
2023-04-15T11:21:01.768Z,101379.81
2023-04-15T11:23:34.418Z,101382.41
2023-04-15T11:26:09.758Z,101379.66
2023-04-15T11:28:39.180Z,101385.88
2023-04-15T11:31:12.255Z,101384.03
2023-04-15T11:33:47.079Z,101385.81
2023-04-15T11:36:15.266Z,101390.25
2023-04-15T11:38:48.490Z,101386.03
2023-04-15T11:41:21.991Z,101393.03
2023-04-15T11:43:50.142Z,101409.81
2023-04-15T11:46:18.541Z,101399.97
2023-04-15T11:48:48.477Z,101398.06
2023-04-15T11:51:16.657Z,101401.56
2023-04-15T11:53:46.268Z,101413.13
2023-04-15T11:56:21.217Z,101409.53
2023-04-15T11:58:50.988Z,101405.94
2023-04-15T12:01:19.215Z,101415.75
2023-04-15T12:03:50.538Z,101408.63
2023-04-15T12:06:20.140Z,101427.22
2023-04-15T12:09:05.052Z,101419.19
2023-04-15T12:11:38.292Z,101423.59
2023-04-15T12:14:09.048Z,101431.63
2023-04-15T12:16:47.816Z,101424.88
2023-04-15T12:19:19.742Z,101433.81
2023-04-15T12:21:49.470Z,101431.16
2023-04-15T12:24:22.115Z,101433.78
2023-04-15T12:26:53.167Z,101435.75
2023-04-15T12:29:22.212Z,101446.41
2023-04-15T12:31:51.810Z,101454.72
2023-04-15T12:34:21.014Z,101449.13
2023-04-15T12:36:49.918Z,101448.03
2023-04-15T12:39:17.822Z,101448.28
2023-04-15T12:41:45.719Z,101467.72
2023-04-15T12:44:15.064Z,101453.47
2023-04-15T12:46:43.042Z,101462.31
2023-04-15T12:49:11.100Z,101455.66
2023-04-15T12:51:43.475Z,101465.13
2023-04-15T12:54:11.466Z,101456.78
2023-04-15T12:56:42.210Z,101458.25
2023-04-15T12:59:10.258Z,101461.66
2023-04-15T13:01:39.989Z,101464.97
2023-04-15T13:04:08.719Z,101485.28
2023-04-15T13:06:38.319Z,101471.63
2023-04-15T13:09:06.650Z,101479.50
2023-04-15T13:11:35.792Z,101479.25
2023-04-15T13:14:05.150Z,101481.84
2023-04-15T13:16:33.935Z,101480.81
2023-04-15T13:19:04.349Z,101481.59
2023-04-15T13:21:35.796Z,101481.44
2023-04-15T13:24:07.083Z,101487.59
2023-04-15T13:26:35.401Z,101489.31
2023-04-15T13:29:03.343Z,101485.69
2023-04-15T13:31:31.352Z,101495.44
2023-04-15T13:33:59.289Z,101500.78
2023-04-15T13:36:28.618Z,101499.88
2023-04-15T13:38:57.030Z,101498.00
2023-04-15T13:41:24.977Z,101503.34
2023-04-15T13:43:55.754Z,101500.78
2023-04-15T13:46:23.726Z,101508.84
2023-04-15T13:48:51.645Z,101507.97
2023-04-15T13:51:19.580Z,101509.78
2023-04-15T13:53:48.887Z,101518.69
2023-04-15T13:56:16.831Z,101518.69
2023-04-15T13:58:44.814Z,101527.59
2023-04-15T14:01:12.773Z,101530.25
2023-04-15T14:03:40.929Z,101537.38
2023-04-15T14:06:11.694Z,101540.97
2023-04-15T14:08:41.139Z,101540.13
2023-04-15T14:11:11.057Z,101549.03
2023-04-15T14:13:39.070Z,101563.31
2023-04-15T14:16:08.651Z,101560.69
2023-04-15T14:18:37.359Z,101576.72
2023-04-15T14:21:07.074Z,101582.06
2023-04-15T14:23:35.030Z,101579.44
2023-04-15T14:26:03.022Z,101589.19
2023-04-15T14:28:32.817Z,101583.06
2023-04-15T14:31:01.133Z,101587.47
2023-04-15T14:33:29.136Z,101595.50
2023-04-15T14:35:57.290Z,101594.56
2023-04-15T14:38:25.401Z,101594.56
2023-04-15T14:40:53.336Z,101606.13
2023-04-15T14:43:21.731Z,101607.03
2023-04-15T14:45:51.981Z,101612.41
2023-04-15T14:48:20.046Z,101620.66
2023-04-15T14:50:50.944Z,101618.50
2023-04-15T14:53:18.935Z,101626.16
2023-04-15T14:55:46.862Z,101625.72
2023-04-15T14:58:14.821Z,101635.31
2023-04-15T15:00:46.007Z,101643.13
2023-04-15T15:03:15.825Z,101635.66
2023-04-15T15:05:46.779Z,101643.38
2023-04-15T15:08:18.056Z,101639.53
2023-04-15T15:10:49.139Z,101637.50
2023-04-15T15:13:18.930Z,101644.44
2023-04-15T15:15:50.221Z,101643.47
2023-04-15T15:18:19.864Z,101647.81
2023-04-15T15:20:48.112Z,101650.34
2023-04-15T15:23:16.117Z,101661.69
2023-04-15T15:25:47.827Z,101664.22
2023-04-15T15:28:15.882Z,101669.72
2023-04-15T15:30:43.773Z,101667.19
2023-04-15T15:33:11.810Z,101670.81
2023-04-15T15:35:41.178Z,101668.00
2023-04-15T15:38:12.208Z,101669.72
2023-04-15T15:40:40.430Z,101677.69
2023-04-15T15:43:10.891Z,101678.38
2023-04-15T15:45:38.847Z,101667.63
2023-04-15T15:48:07.762Z,101681.78
2023-04-15T15:50:38.557Z,101674.56
2023-04-15T15:53:07.945Z,101682.50
2023-04-15T15:55:35.825Z,101681.56
2023-04-15T15:58:03.779Z,101689.44
2023-04-15T16:00:31.799Z,101688.50
2023-04-15T16:03:07.383Z,101682.25
2023-04-15T16:05:36.162Z,101689.38
2023-04-15T16:08:04.251Z,101695.66
2023-04-15T16:10:33.672Z,101695.13
2023-04-15T16:13:01.977Z,101702.34
2023-04-15T16:15:30.373Z,101700.72
2023-04-15T16:18:01.643Z,101706.13
2023-04-15T16:20:29.858Z,101704.31
2023-04-15T16:23:00.936Z,101708.88
2023-04-15T16:25:28.876Z,101711.63
2023-04-15T16:28:03.549Z,101727.69
2023-04-15T16:30:37.153Z,101728.66
2023-04-15T16:33:05.231Z,101725.19
2023-04-15T16:35:34.655Z,101739.44
2023-04-15T16:38:03.122Z,101735.09
2023-04-15T16:40:31.739Z,101738.72
2023-04-15T16:43:01.095Z,101732.50
2023-04-15T16:45:29.081Z,101748.63
2023-04-15T16:47:57.863Z,101755.81
2023-04-15T16:50:26.046Z,101757.63
2023-04-15T16:52:54.034Z,101758.63
2023-04-15T16:55:22.129Z,101760.44
2023-04-15T16:57:54.058Z,101760.44
2023-04-15T17:00:31.087Z,101769.41
2023-04-15T17:02:59.356Z,101765.88
2023-04-15T17:05:30.621Z,101777.53
2023-04-15T17:07:58.763Z,101773.97
2023-04-15T17:10:26.726Z,101768.59
2023-04-15T17:12:56.684Z,101774.91
2023-04-15T17:15:25.270Z,101774.91
2023-04-15T17:17:54.758Z,101784.75
2023-04-15T17:20:22.778Z,101783.03
2023-04-15T17:22:50.815Z,101782.16
2023-04-15T17:25:19.448Z,101789.25
2023-04-15T17:27:47.502Z,101786.56
2023-04-15T17:30:15.673Z,101782.16
2023-04-15T17:32:43.721Z,101785.41
2023-04-15T17:35:13.146Z,101790.47
2023-04-15T17:37:41.138Z,101792.94
2023-04-15T17:40:10.106Z,101791.91
2023-04-15T17:42:38.077Z,101790.84
2023-04-15T17:45:09.651Z,101805.00
2023-04-15T17:47:37.712Z,101802.25
2023-04-15T17:50:06.343Z,101809.25
2023-04-15T17:52:35.866Z,101815.44
2023-04-15T17:55:03.798Z,101823.38
2023-04-15T17:57:31.789Z,101819.78
2023-04-15T18:00:01.403Z,101817.09
2023-04-15T18:02:29.545Z,101822.38
2023-04-15T18:04:57.816Z,101823.25
2023-04-15T18:07:26.472Z,101828.50
2023-04-15T18:09:56.439Z,101833.75
2023-04-15T18:12:24.434Z,101839.06
2023-04-15T18:14:52.376Z,101835.53
2023-04-15T18:17:20.638Z,101843.56
2023-04-15T18:19:48.757Z,101844.34
2023-04-15T18:22:16.654Z,101855.91
2023-04-15T18:24:44.651Z,101848.75
2023-04-15T18:27:14.133Z,101860.31
2023-04-15T18:29:42.884Z,101857.59
2023-04-15T18:32:11.279Z,101863.81
2023-04-15T18:34:42.904Z,101864.63
2023-04-15T18:37:10.990Z,101872.66
2023-04-15T18:39:38.916Z,101878.03
2023-04-15T18:42:07.018Z,101882.34
2023-04-15T18:44:36.325Z,101884.16
2023-04-15T18:47:04.797Z,101888.56
2023-04-15T18:49:33.322Z,101892.13
2023-04-15T18:52:01.309Z,101886.69
2023-04-15T18:54:29.245Z,101903.56
2023-04-15T18:56:57.555Z,101900.00
2023-04-15T18:59:29.615Z,101902.69
2023-04-15T19:02:01.255Z,101909.88
2023-04-15T19:04:29.843Z,101905.38
2023-04-15T19:06:59.015Z,101909.78
2023-04-15T19:09:27.436Z,101906.25
2023-04-15T19:11:56.813Z,101912.41
2023-04-15T19:14:25.139Z,101912.41
2023-04-15T19:16:53.132Z,101908.78
2023-04-15T19:19:22.441Z,101913.19
2023-04-15T19:21:50.587Z,101924.81
2023-04-15T19:24:19.183Z,101921.22
2023-04-15T19:26:50.199Z,101915.88
2023-04-15T19:29:18.417Z,101921.16
2023-04-15T19:31:49.131Z,101927.41
2023-04-15T19:34:17.555Z,101926.53
2023-04-15T19:36:50.080Z,101929.13
2023-04-15T19:39:18.488Z,101937.16
2023-04-15T19:41:47.408Z,101949.63
2023-04-15T19:44:16.626Z,101946.94
2023-04-15T19:46:44.945Z,101941.56
2023-04-15T19:49:12.965Z,101960.19
2023-04-15T19:51:42.579Z,101954.84
2023-04-15T19:54:11.921Z,101952.09
2023-04-15T19:56:39.827Z,101956.56
2023-04-15T19:59:07.878Z,101953.84
2023-04-15T20:01:36.053Z,101958.25
2023-04-15T20:04:04.350Z,101959.97
2023-04-15T20:06:32.647Z,101953.69
2023-04-15T20:09:03.698Z,101967.00
2023-04-15T20:12:48.170Z,101954.06
2023-04-15T20:14:25.040Z,101954.84
2023-04-15T20:16:53.000Z,101959.84
2023-04-15T20:19:20.948Z,101956.06
2023-04-15T20:21:49.447Z,101957.84
2023-04-15T20:24:21.553Z,101967.69
2023-04-15T20:26:50.931Z,101958.59
2023-04-15T20:29:18.887Z,101948.53
2023-04-15T20:31:47.190Z,101952.88
2023-04-15T20:34:15.206Z,101958.09
2023-04-15T20:36:43.189Z,101957.25
2023-04-15T20:39:11.483Z,101958.09
2023-04-15T20:41:39.535Z,101957.25
2023-04-15T20:44:08.884Z,101964.34
2023-04-15T20:46:36.817Z,101958.09
2023-04-15T20:49:05.129Z,101969.69
2023-04-15T20:51:37.689Z,101967.00
2023-04-15T20:54:05.972Z,101960.69
2023-04-15T20:56:36.972Z,101968.69
2023-04-15T20:59:05.305Z,101965.06
2023-04-15T21:01:37.677Z,101969.56
2023-04-15T21:04:05.896Z,101957.97
2023-04-15T21:06:34.483Z,101965.06
2023-04-15T21:09:02.484Z,101968.69
2023-04-15T21:11:53.408Z,101966.94
2023-04-15T21:14:18.475Z,101976.66
2023-04-15T21:16:48.074Z,101982.09
2023-04-15T21:19:18.888Z,101978.56
2023-04-15T21:21:46.857Z,101981.22
2023-04-15T21:24:14.834Z,101984.81
2023-04-15T21:26:42.811Z,101982.16
2023-04-15T21:29:11.923Z,101991.13
2023-04-15T21:31:40.211Z,101992.09
2023-04-15T21:34:09.775Z,101999.28
2023-04-15T21:36:38.669Z,101994.78
2023-04-15T21:39:07.130Z,101988.53
2023-04-15T21:41:35.239Z,101997.50
2023-04-15T21:44:04.117Z,101998.41
2023-04-15T21:46:35.202Z,101998.47
2023-04-15T21:49:03.835Z,101999.31
2023-04-15T21:51:33.593Z,102011.00
2023-04-15T21:54:01.705Z,102009.25
2023-04-15T21:56:35.942Z,102012.88
2023-04-15T21:59:04.078Z,102020.03
2023-04-15T22:01:32.353Z,102011.13
2023-04-15T22:04:00.618Z,102022.81
2023-04-15T22:06:28.698Z,102021.06
2023-04-15T22:08:58.082Z,102021.13
2023-04-15T22:11:28.175Z,102022.00
2023-04-15T22:13:57.276Z,102028.31
2023-04-15T22:16:26.445Z,102023.88
2023-04-15T22:18:54.828Z,102030.97
2023-04-15T22:21:22.846Z,102033.75
2023-04-15T22:23:50.876Z,102036.44
2023-04-15T22:26:21.024Z,102034.59
2023-04-15T22:28:48.946Z,102032.88
2023-04-15T22:31:16.934Z,102032.94
2023-04-15T22:33:47.405Z,102035.69
2023-04-15T22:36:15.535Z,102037.50
2023-04-15T22:38:43.536Z,102038.38
2023-04-15T22:41:11.514Z,102049.09
2023-04-15T22:43:40.795Z,102045.59
2023-04-15T22:46:10.722Z,102042.91
2023-04-15T22:48:42.528Z,102042.91
2023-04-15T22:51:10.523Z,102043.78
2023-04-15T22:53:38.513Z,102045.59
2023-04-15T22:56:07.237Z,102046.56
2023-04-15T22:58:35.183Z,102043.00
2023-04-15T23:01:04.675Z,102049.22
2023-04-15T23:03:32.742Z,102048.38
2023-04-15T23:06:20.682Z,102046.63
2023-04-15T23:08:50.014Z,102058.22
2023-04-15T23:11:18.476Z,102060.03
2023-04-15T23:13:50.544Z,102056.50
2023-04-15T23:16:19.939Z,102059.16
2023-04-15T23:18:48.022Z,102056.50
2023-04-15T23:21:15.929Z,102060.03
2023-04-15T23:23:43.973Z,102068.06
2023-04-15T23:26:11.933Z,102068.06
2023-04-15T23:28:39.957Z,102069.00
2023-04-15T23:31:07.934Z,102072.56
2023-04-15T23:33:38.133Z,102071.63
2023-04-15T23:36:08.845Z,102068.94
2023-04-15T23:38:39.267Z,102067.22
2023-04-15T23:41:09.199Z,102069.88
2023-04-15T23:43:37.146Z,102077.03
2023-04-15T23:46:05.185Z,102077.03
2023-04-15T23:48:33.236Z,102073.47
2023-04-15T23:51:02.704Z,102074.44
2023-04-15T23:53:31.177Z,102071.75
2023-04-15T23:55:59.080Z,102077.09
2023-04-15T23:58:27.108Z,102081.69
